sensor_id;sensor_type;location;lat;lon;timestamp;temperature;humidity
1702;DHT22;848;48.354;10.064;2022-10-26T00:00:50;11.50;99.90
1702;DHT22;848;48.354;10.064;2022-10-26T00:03:17;11.50;99.90
1702;DHT22;848;48.354;10.064;2022-10-26T00:05:47;11.50;99.90
1702;DHT22;848;48.354;10.064;2022-10-26T00:08:14;11.50;99.90
1702;DHT22;848;48.354;10.064;2022-10-26T00:10:42;11.50;99.90
1702;DHT22;848;48.354;10.064;2022-10-26T00:13:12;11.50;99.90
1702;DHT22;848;48.354;10.064;2022-10-26T00:15:40;11.50;99.90
1702;DHT22;848;48.354;10.064;2022-10-26T00:18:09;11.60;99.90
1702;DHT22;848;48.354;10.064;2022-10-26T00:20:36;11.60;99.90
1702;DHT22;848;48.354;10.064;2022-10-26T00:23:03;11.50;99.90
1702;DHT22;848;48.354;10.064;2022-10-26T00:25:30;11.50;99.90
1702;DHT22;848;48.354;10.064;2022-10-26T00:27:57;11.50;99.90
1702;DHT22;848;48.354;10.064;2022-10-26T00:30:24;11.50;99.90
1702;DHT22;848;48.354;10.064;2022-10-26T00:32:51;11.50;99.90
1702;DHT22;848;48.354;10.064;2022-10-26T00:35:19;11.50;99.90
1702;DHT22;848;48.354;10.064;2022-10-26T00:37:46;11.60;99.90
1702;DHT22;848;48.354;10.064;2022-10-26T00:40:13;11.60;99.90
1702;DHT22;848;48.354;10.064;2022-10-26T00:42:42;11.70;99.90
1702;DHT22;848;48.354;10.064;2022-10-26T00:45:18;11.70;99.90
1702;DHT22;848;48.354;10.064;2022-10-26T00:47:47;11.70;99.90
1702;DHT22;848;48.354;10.064;2022-10-26T00:50:20;11.70;99.90
1702;DHT22;848;48.354;10.064;2022-10-26T00:52:49;11.70;99.90
1702;DHT22;848;48.354;10.064;2022-10-26T00:55:18;11.70;99.90
1702;DHT22;848;48.354;10.064;2022-10-26T00:57:48;11.70;99.90
1702;DHT22;848;48.354;10.064;2022-10-26T01:00:16;11.70;99.90
1702;DHT22;848;48.354;10.064;2022-10-26T01:02:45;11.70;99.90
1702;DHT22;848;48.354;10.064;2022-10-26T01:05:13;11.70;99.90
1702;DHT22;848;48.354;10.064;2022-10-26T01:07:43;11.70;99.90
1702;DHT22;848;48.354;10.064;2022-10-26T01:10:10;11.70;99.90
1702;DHT22;848;48.354;10.064;2022-10-26T01:12:39;11.80;99.90
1702;DHT22;848;48.354;10.064;2022-10-26T01:15:06;11.80;99.90
1702;DHT22;848;48.354;10.064;2022-10-26T01:17:51;11.80;99.90
1702;DHT22;848;48.354;10.064;2022-10-26T01:20:44;11.80;99.90
1702;DHT22;848;48.354;10.064;2022-10-26T01:23:25;11.80;99.90
1702;DHT22;848;48.354;10.064;2022-10-26T01:26:23;11.80;99.90
1702;DHT22;848;48.354;10.064;2022-10-26T01:29:13;11.80;99.90
1702;DHT22;848;48.354;10.064;2022-10-26T01:31:51;11.90;99.90
1702;DHT22;848;48.354;10.064;2022-10-26T01:34:22;11.90;99.90
1702;DHT22;848;48.354;10.064;2022-10-26T01:36:54;11.90;99.90
1702;DHT22;848;48.354;10.064;2022-10-26T01:39:26;11.90;99.90
1702;DHT22;848;48.354;10.064;2022-10-26T01:41:56;11.90;99.90
1702;DHT22;848;48.354;10.064;2022-10-26T01:44:26;11.90;99.90
1702;DHT22;848;48.354;10.064;2022-10-26T01:46:59;11.90;99.90
1702;DHT22;848;48.354;10.064;2022-10-26T01:49:32;11.90;99.90
1702;DHT22;848;48.354;10.064;2022-10-26T01:52:01;11.80;99.90
1702;DHT22;848;48.354;10.064;2022-10-26T01:54:28;11.80;99.90
1702;DHT22;848;48.354;10.064;2022-10-26T01:56:58;11.80;99.90
1702;DHT22;848;48.354;10.064;2022-10-26T02:05:43;11.80;99.90
1702;DHT22;848;48.354;10.064;2022-10-26T02:08:20;11.90;99.90
1702;DHT22;848;48.354;10.064;2022-10-26T02:10:58;11.80;99.90
1702;DHT22;848;48.354;10.064;2022-10-26T02:13:32;11.80;99.90
1702;DHT22;848;48.354;10.064;2022-10-26T02:16:09;11.80;99.90
1702;DHT22;848;48.354;10.064;2022-10-26T02:18:42;11.80;99.90
1702;DHT22;848;48.354;10.064;2022-10-26T02:21:16;11.90;99.90
1702;DHT22;848;48.354;10.064;2022-10-26T02:23:45;11.90;99.90
1702;DHT22;848;48.354;10.064;2022-10-26T02:26:16;11.90;99.90
1702;DHT22;848;48.354;10.064;2022-10-26T02:28:48;11.80;99.90
1702;DHT22;848;48.354;10.064;2022-10-26T02:31:17;11.80;99.90
1702;DHT22;848;48.354;10.064;2022-10-26T02:33:48;11.80;99.90
1702;DHT22;848;48.354;10.064;2022-10-26T02:36:21;11.90;99.90
1702;DHT22;848;48.354;10.064;2022-10-26T02:38:51;11.80;99.90
1702;DHT22;848;48.354;10.064;2022-10-26T02:41:20;11.80;99.90
1702;DHT22;848;48.354;10.064;2022-10-26T02:43:53;11.80;99.90
1702;DHT22;848;48.354;10.064;2022-10-26T02:46:23;11.90;99.90
1702;DHT22;848;48.354;10.064;2022-10-26T02:48:53;11.80;99.90
1702;DHT22;848;48.354;10.064;2022-10-26T02:51:26;11.80;99.90
1702;DHT22;848;48.354;10.064;2022-10-26T02:53:59;11.70;99.90
1702;DHT22;848;48.354;10.064;2022-10-26T02:56:31;11.70;99.90
1702;DHT22;848;48.354;10.064;2022-10-26T02:59:02;11.70;99.90
1702;DHT22;848;48.354;10.064;2022-10-26T03:01:31;11.70;99.90
1702;DHT22;848;48.354;10.064;2022-10-26T03:04:00;11.70;99.90
1702;DHT22;848;48.354;10.064;2022-10-26T03:06:27;11.70;99.90
1702;DHT22;848;48.354;10.064;2022-10-26T03:08:54;11.70;99.90
1702;DHT22;848;48.354;10.064;2022-10-26T03:11:21;11.60;99.90
1702;DHT22;848;48.354;10.064;2022-10-26T03:13:48;11.40;99.90
1702;DHT22;848;48.354;10.064;2022-10-26T03:16:15;11.50;99.90
1702;DHT22;848;48.354;10.064;2022-10-26T03:18:42;11.40;99.90
1702;DHT22;848;48.354;10.064;2022-10-26T03:21:10;11.30;99.90
1702;DHT22;848;48.354;10.064;2022-10-26T03:23:37;11.30;99.90
1702;DHT22;848;48.354;10.064;2022-10-26T03:26:04;11.30;99.90
1702;DHT22;848;48.354;10.064;2022-10-26T03:28:31;11.30;99.90
1702;DHT22;848;48.354;10.064;2022-10-26T03:30:58;11.30;99.90
1702;DHT22;848;48.354;10.064;2022-10-26T03:33:25;11.30;99.90
1702;DHT22;848;48.354;10.064;2022-10-26T03:35:55;11.30;99.90
1702;DHT22;848;48.354;10.064;2022-10-26T03:38:23;11.30;99.90
1702;DHT22;848;48.354;10.064;2022-10-26T03:40:50;11.40;99.90
1702;DHT22;848;48.354;10.064;2022-10-26T03:43:17;11.50;99.90
1702;DHT22;848;48.354;10.064;2022-10-26T03:45:45;11.50;99.90
1702;DHT22;848;48.354;10.064;2022-10-26T03:48:12;11.60;99.90
1702;DHT22;848;48.354;10.064;2022-10-26T03:50:39;11.60;99.90
1702;DHT22;848;48.354;10.064;2022-10-26T03:53:07;11.60;99.90
1702;DHT22;848;48.354;10.064;2022-10-26T03:55:35;11.60;99.90
1702;DHT22;848;48.354;10.064;2022-10-26T03:58:02;11.60;99.90
1702;DHT22;848;48.354;10.064;2022-10-26T04:00:29;11.50;99.90
1702;DHT22;848;48.354;10.064;2022-10-26T04:02:57;11.50;99.90
1702;DHT22;848;48.354;10.064;2022-10-26T04:05:26;11.50;99.90
1702;DHT22;848;48.354;10.064;2022-10-26T04:07:54;11.50;99.90
1702;DHT22;848;48.354;10.064;2022-10-26T04:10:21;11.60;99.90
1702;DHT22;848;48.354;10.064;2022-10-26T04:12:49;11.60;99.90
1702;DHT22;848;48.354;10.064;2022-10-26T04:15:17;11.70;99.90
1702;DHT22;848;48.354;10.064;2022-10-26T04:17:43;11.80;99.90
1702;DHT22;848;48.354;10.064;2022-10-26T04:20:11;11.80;99.90
1702;DHT22;848;48.354;10.064;2022-10-26T04:22:38;11.70;99.90
1702;DHT22;848;48.354;10.064;2022-10-26T04:25:06;11.80;99.90
1702;DHT22;848;48.354;10.064;2022-10-26T04:27:33;11.80;99.90
1702;DHT22;848;48.354;10.064;2022-10-26T04:30:01;11.90;99.90
1702;DHT22;848;48.354;10.064;2022-10-26T04:32:30;11.90;99.90
1702;DHT22;848;48.354;10.064;2022-10-26T04:34:57;11.90;99.90
1702;DHT22;848;48.354;10.064;2022-10-26T04:37:23;11.90;99.90
1702;DHT22;848;48.354;10.064;2022-10-26T04:39:50;12.00;99.90
1702;DHT22;848;48.354;10.064;2022-10-26T04:42:17;11.90;99.90
1702;DHT22;848;48.354;10.064;2022-10-26T04:44:44;11.90;99.90
1702;DHT22;848;48.354;10.064;2022-10-26T04:47:12;11.90;99.90
1702;DHT22;848;48.354;10.064;2022-10-26T04:49:39;11.90;99.90
1702;DHT22;848;48.354;10.064;2022-10-26T04:52:06;11.90;99.90
1702;DHT22;848;48.354;10.064;2022-10-26T04:54:33;11.90;99.90
1702;DHT22;848;48.354;10.064;2022-10-26T04:57:00;11.90;99.90
1702;DHT22;848;48.354;10.064;2022-10-26T04:59:27;11.90;99.90
1702;DHT22;848;48.354;10.064;2022-10-26T05:01:53;11.90;99.90
1702;DHT22;848;48.354;10.064;2022-10-26T05:04:22;11.90;99.90
1702;DHT22;848;48.354;10.064;2022-10-26T05:06:51;12.00;99.90
1702;DHT22;848;48.354;10.064;2022-10-26T05:09:18;12.00;99.90
1702;DHT22;848;48.354;10.064;2022-10-26T05:11:45;12.10;99.90
1702;DHT22;848;48.354;10.064;2022-10-26T05:14:12;12.00;99.90
1702;DHT22;848;48.354;10.064;2022-10-26T05:16:38;12.10;99.90
1702;DHT22;848;48.354;10.064;2022-10-26T05:19:05;12.10;99.90
1702;DHT22;848;48.354;10.064;2022-10-26T05:21:34;12.10;99.90
1702;DHT22;848;48.354;10.064;2022-10-26T05:24:00;12.10;99.90
1702;DHT22;848;48.354;10.064;2022-10-26T05:26:27;12.10;99.90
1702;DHT22;848;48.354;10.064;2022-10-26T05:28:54;12.10;99.90
1702;DHT22;848;48.354;10.064;2022-10-26T05:31:21;12.00;99.90
1702;DHT22;848;48.354;10.064;2022-10-26T05:33:49;12.00;99.90
1702;DHT22;848;48.354;10.064;2022-10-26T05:36:16;12.00;99.90
1702;DHT22;848;48.354;10.064;2022-10-26T05:38:44;12.00;99.90
1702;DHT22;848;48.354;10.064;2022-10-26T05:41:11;12.00;99.90
1702;DHT22;848;48.354;10.064;2022-10-26T05:43:38;12.00;99.90
1702;DHT22;848;48.354;10.064;2022-10-26T05:46:09;12.00;99.90
1702;DHT22;848;48.354;10.064;2022-10-26T05:48:36;12.10;99.90
1702;DHT22;848;48.354;10.064;2022-10-26T05:51:03;12.10;99.90
1702;DHT22;848;48.354;10.064;2022-10-26T05:53:30;12.10;99.90
1702;DHT22;848;48.354;10.064;2022-10-26T05:55:59;12.20;99.90
1702;DHT22;848;48.354;10.064;2022-10-26T05:58:27;12.20;99.90
1702;DHT22;848;48.354;10.064;2022-10-26T06:01:04;12.20;99.90
1702;DHT22;848;48.354;10.064;2022-10-26T06:03:44;12.20;99.90
1702;DHT22;848;48.354;10.064;2022-10-26T06:06:14;12.20;99.90
1702;DHT22;848;48.354;10.064;2022-10-26T06:08:44;12.20;99.90
1702;DHT22;848;48.354;10.064;2022-10-26T06:11:13;12.20;99.90
1702;DHT22;848;48.354;10.064;2022-10-26T06:13:40;12.30;99.90
1702;DHT22;848;48.354;10.064;2022-10-26T06:16:23;12.20;99.90
1702;DHT22;848;48.354;10.064;2022-10-26T06:19:00;12.30;99.90
1702;DHT22;848;48.354;10.064;2022-10-26T06:21:40;12.30;99.90
1702;DHT22;848;48.354;10.064;2022-10-26T06:24:13;12.30;99.90
1702;DHT22;848;48.354;10.064;2022-10-26T06:26:49;12.30;99.90
1702;DHT22;848;48.354;10.064;2022-10-26T06:29:27;12.30;99.90
1702;DHT22;848;48.354;10.064;2022-10-26T06:32:00;12.30;99.90
1702;DHT22;848;48.354;10.064;2022-10-26T06:34:32;12.30;99.90
1702;DHT22;848;48.354;10.064;2022-10-26T06:37:00;12.30;99.90
1702;DHT22;848;48.354;10.064;2022-10-26T06:39:29;12.20;99.90
1702;DHT22;848;48.354;10.064;2022-10-26T06:41:59;12.30;99.90
1702;DHT22;848;48.354;10.064;2022-10-26T06:44:27;12.20;99.90
1702;DHT22;848;48.354;10.064;2022-10-26T06:47:00;12.20;99.90
1702;DHT22;848;48.354;10.064;2022-10-26T06:49:31;12.20;99.90
1702;DHT22;848;48.354;10.064;2022-10-26T06:52:04;12.20;99.90
1702;DHT22;848;48.354;10.064;2022-10-26T06:54:46;12.20;99.90
1702;DHT22;848;48.354;10.064;2022-10-26T06:57:16;12.20;99.90
1702;DHT22;848;48.354;10.064;2022-10-26T06:59:45;12.20;99.90
1702;DHT22;848;48.354;10.064;2022-10-26T07:02:13;12.20;99.90
1702;DHT22;848;48.354;10.064;2022-10-26T07:04:40;12.30;99.90
1702;DHT22;848;48.354;10.064;2022-10-26T07:07:11;12.40;99.90
1702;DHT22;848;48.354;10.064;2022-10-26T07:09:39;12.40;99.90
1702;DHT22;848;48.354;10.064;2022-10-26T07:12:09;12.40;99.90
1702;DHT22;848;48.354;10.064;2022-10-26T07:14:37;12.50;99.90
1702;DHT22;848;48.354;10.064;2022-10-26T07:17:05;12.50;99.90
1702;DHT22;848;48.354;10.064;2022-10-26T07:19:31;12.60;99.90
1702;DHT22;848;48.354;10.064;2022-10-26T07:21:58;12.60;99.90
1702;DHT22;848;48.354;10.064;2022-10-26T07:24:25;12.60;99.90
1702;DHT22;848;48.354;10.064;2022-10-26T07:26:53;12.60;99.90
1702;DHT22;848;48.354;10.064;2022-10-26T07:29:20;12.70;99.90
1702;DHT22;848;48.354;10.064;2022-10-26T07:31:49;12.60;99.90
1702;DHT22;848;48.354;10.064;2022-10-26T07:34:15;12.60;99.90
1702;DHT22;848;48.354;10.064;2022-10-26T07:36:43;12.70;99.90
1702;DHT22;848;48.354;10.064;2022-10-26T07:39:10;12.80;99.90
1702;DHT22;848;48.354;10.064;2022-10-26T07:41:37;12.80;99.90
1702;DHT22;848;48.354;10.064;2022-10-26T07:44:04;12.90;99.90
1702;DHT22;848;48.354;10.064;2022-10-26T07:46:31;13.00;99.90
1702;DHT22;848;48.354;10.064;2022-10-26T07:48:59;13.10;99.90
1702;DHT22;848;48.354;10.064;2022-10-26T07:51:26;13.20;99.90
1702;DHT22;848;48.354;10.064;2022-10-26T07:53:53;13.20;99.90
1702;DHT22;848;48.354;10.064;2022-10-26T07:56:20;13.30;99.90
1702;DHT22;848;48.354;10.064;2022-10-26T07:58:47;13.20;99.90
1702;DHT22;848;48.354;10.064;2022-10-26T08:01:14;13.20;99.90
1702;DHT22;848;48.354;10.064;2022-10-26T08:03:41;13.20;99.90
1702;DHT22;848;48.354;10.064;2022-10-26T08:06:10;13.20;99.90
1702;DHT22;848;48.354;10.064;2022-10-26T08:08:37;13.30;99.90
1702;DHT22;848;48.354;10.064;2022-10-26T08:11:04;13.40;99.90
1702;DHT22;848;48.354;10.064;2022-10-26T08:13:31;13.50;99.90
1702;DHT22;848;48.354;10.064;2022-10-26T08:16:01;13.70;99.90
1702;DHT22;848;48.354;10.064;2022-10-26T08:18:29;13.80;99.90
1702;DHT22;848;48.354;10.064;2022-10-26T08:21:03;14.00;99.90
1702;DHT22;848;48.354;10.064;2022-10-26T08:23:32;14.00;99.90
1702;DHT22;848;48.354;10.064;2022-10-26T08:26:00;14.10;99.90
1702;DHT22;848;48.354;10.064;2022-10-26T08:28:28;14.20;99.90
1702;DHT22;848;48.354;10.064;2022-10-26T08:30:55;14.30;99.90
1702;DHT22;848;48.354;10.064;2022-10-26T08:33:23;14.50;99.90
1702;DHT22;848;48.354;10.064;2022-10-26T08:35:54;14.50;99.90
1702;DHT22;848;48.354;10.064;2022-10-26T08:38:21;14.40;99.90
1702;DHT22;848;48.354;10.064;2022-10-26T08:40:50;14.50;99.90
1702;DHT22;848;48.354;10.064;2022-10-26T08:43:21;14.70;99.90
1702;DHT22;848;48.354;10.064;2022-10-26T08:45:54;14.80;99.90
1702;DHT22;848;48.354;10.064;2022-10-26T08:48:26;14.60;99.90
1702;DHT22;848;48.354;10.064;2022-10-26T08:50:56;14.60;99.90
1702;DHT22;848;48.354;10.064;2022-10-26T08:53:29;14.60;99.90
1702;DHT22;848;48.354;10.064;2022-10-26T08:56:05;14.50;99.90
1702;DHT22;848;48.354;10.064;2022-10-26T08:58:37;14.50;99.90
1702;DHT22;848;48.354;10.064;2022-10-26T09:01:07;14.60;99.90
1702;DHT22;848;48.354;10.064;2022-10-26T09:03:34;14.60;99.90
1702;DHT22;848;48.354;10.064;2022-10-26T09:06:09;14.70;99.90
1702;DHT22;848;48.354;10.064;2022-10-26T09:08:46;14.70;99.90
1702;DHT22;848;48.354;10.064;2022-10-26T09:11:28;14.70;99.90
1702;DHT22;848;48.354;10.064;2022-10-26T09:14:06;14.60;99.90
1702;DHT22;848;48.354;10.064;2022-10-26T09:16:41;14.70;99.90
1702;DHT22;848;48.354;10.064;2022-10-26T09:19:34;14.70;99.90
1702;DHT22;848;48.354;10.064;2022-10-26T09:22:08;14.70;99.90
1702;DHT22;848;48.354;10.064;2022-10-26T09:24:38;14.80;99.90
1702;DHT22;848;48.354;10.064;2022-10-26T09:27:15;14.80;99.90
1702;DHT22;848;48.354;10.064;2022-10-26T09:29:46;14.70;99.90
1702;DHT22;848;48.354;10.064;2022-10-26T09:32:17;14.70;99.90
1702;DHT22;848;48.354;10.064;2022-10-26T09:34:48;14.70;99.90
1702;DHT22;848;48.354;10.064;2022-10-26T09:37:20;14.80;99.90
1702;DHT22;848;48.354;10.064;2022-10-26T09:39:58;14.80;99.90
1702;DHT22;848;48.354;10.064;2022-10-26T09:42:37;14.90;99.90
1702;DHT22;848;48.354;10.064;2022-10-26T09:45:12;15.00;99.90
1702;DHT22;848;48.354;10.064;2022-10-26T09:47:45;15.10;99.90
1702;DHT22;848;48.354;10.064;2022-10-26T09:50:19;15.30;99.90
1702;DHT22;848;48.354;10.064;2022-10-26T09:52:47;15.50;99.90
1702;DHT22;848;48.354;10.064;2022-10-26T09:55:14;15.80;99.90
1702;DHT22;848;48.354;10.064;2022-10-26T09:57:45;16.00;99.90
1702;DHT22;848;48.354;10.064;2022-10-26T10:00:15;16.10;99.90
1702;DHT22;848;48.354;10.064;2022-10-26T10:02:43;16.20;99.90
1702;DHT22;848;48.354;10.064;2022-10-26T10:05:29;16.30;99.90
1702;DHT22;848;48.354;10.064;2022-10-26T10:08:17;16.30;99.90
1702;DHT22;848;48.354;10.064;2022-10-26T10:10:59;16.20;99.90
1702;DHT22;848;48.354;10.064;2022-10-26T10:13:29;16.30;99.90
1702;DHT22;848;48.354;10.064;2022-10-26T10:16:02;16.40;99.90
1702;DHT22;848;48.354;10.064;2022-10-26T10:18:30;16.40;99.90
1702;DHT22;848;48.354;10.064;2022-10-26T10:20:58;16.40;99.90
1702;DHT22;848;48.354;10.064;2022-10-26T10:23:31;16.40;99.90
1702;DHT22;848;48.354;10.064;2022-10-26T10:26:03;16.50;99.90
1702;DHT22;848;48.354;10.064;2022-10-26T10:28:33;16.50;99.90
1702;DHT22;848;48.354;10.064;2022-10-26T10:31:01;16.40;99.90
1702;DHT22;848;48.354;10.064;2022-10-26T10:33:33;16.40;99.90
1702;DHT22;848;48.354;10.064;2022-10-26T10:36:02;16.40;99.90
1702;DHT22;848;48.354;10.064;2022-10-26T10:38:36;16.50;99.90
1702;DHT22;848;48.354;10.064;2022-10-26T10:41:03;16.70;99.90
1702;DHT22;848;48.354;10.064;2022-10-26T10:43:32;16.80;99.90
1702;DHT22;848;48.354;10.064;2022-10-26T10:45:59;16.80;99.90
1702;DHT22;848;48.354;10.064;2022-10-26T10:48:27;16.90;99.90
1702;DHT22;848;48.354;10.064;2022-10-26T10:50:56;17.00;99.90
1702;DHT22;848;48.354;10.064;2022-10-26T10:53:27;17.10;99.90
1702;DHT22;848;48.354;10.064;2022-10-26T10:56:14;17.10;99.90
1702;DHT22;848;48.354;10.064;2022-10-26T10:58:53;17.10;99.90
1702;DHT22;848;48.354;10.064;2022-10-26T11:01:28;17.10;99.90
1702;DHT22;848;48.354;10.064;2022-10-26T11:04:15;17.10;99.90
1702;DHT22;848;48.354;10.064;2022-10-26T11:06:47;17.10;99.90
1702;DHT22;848;48.354;10.064;2022-10-26T11:09:17;17.10;99.90
1702;DHT22;848;48.354;10.064;2022-10-26T11:11:49;17.00;99.90
1702;DHT22;848;48.354;10.064;2022-10-26T11:14:23;17.00;99.90
1702;DHT22;848;48.354;10.064;2022-10-26T11:16:54;17.00;99.90
1702;DHT22;848;48.354;10.064;2022-10-26T11:19:25;16.90;99.90
1702;DHT22;848;48.354;10.064;2022-10-26T11:21:54;16.90;99.90
1702;DHT22;848;48.354;10.064;2022-10-26T11:24:24;16.90;99.90
1702;DHT22;848;48.354;10.064;2022-10-26T11:26:58;16.90;99.90
1702;DHT22;848;48.354;10.064;2022-10-26T11:29:32;16.90;99.90
1702;DHT22;848;48.354;10.064;2022-10-26T11:32:08;17.10;99.90
1702;DHT22;848;48.354;10.064;2022-10-26T11:34:41;17.20;99.90
1702;DHT22;848;48.354;10.064;2022-10-26T11:37:14;17.40;99.90
1702;DHT22;848;48.354;10.064;2022-10-26T11:39:45;17.50;99.90
1702;DHT22;848;48.354;10.064;2022-10-26T11:42:21;17.50;99.90
1702;DHT22;848;48.354;10.064;2022-10-26T11:44:57;17.60;99.90
1702;DHT22;848;48.354;10.064;2022-10-26T11:47:29;17.60;99.90
1702;DHT22;848;48.354;10.064;2022-10-26T11:50:04;17.60;99.90
1702;DHT22;848;48.354;10.064;2022-10-26T11:52:38;17.50;99.90
1702;DHT22;848;48.354;10.064;2022-10-26T11:55:08;17.60;99.90
1702;DHT22;848;48.354;10.064;2022-10-26T11:57:36;17.60;99.90
1702;DHT22;848;48.354;10.064;2022-10-26T12:00:07;17.70;99.90
1702;DHT22;848;48.354;10.064;2022-10-26T12:02:41;17.60;99.90
1702;DHT22;848;48.354;10.064;2022-10-26T12:05:18;17.70;99.90
1702;DHT22;848;48.354;10.064;2022-10-26T12:07:48;17.70;99.90
1702;DHT22;848;48.354;10.064;2022-10-26T12:10:23;17.70;99.90
1702;DHT22;848;48.354;10.064;2022-10-26T12:12:56;17.70;99.90
1702;DHT22;848;48.354;10.064;2022-10-26T12:15:29;17.70;99.90
1702;DHT22;848;48.354;10.064;2022-10-26T12:18:05;17.80;99.90
1702;DHT22;848;48.354;10.064;2022-10-26T12:20:52;17.90;99.90
1702;DHT22;848;48.354;10.064;2022-10-26T12:23:19;17.90;99.90
1702;DHT22;848;48.354;10.064;2022-10-26T12:25:47;17.90;99.90
1702;DHT22;848;48.354;10.064;2022-10-26T12:28:38;17.90;99.90
1702;DHT22;848;48.354;10.064;2022-10-26T12:31:42;17.90;99.90
1702;DHT22;848;48.354;10.064;2022-10-26T12:34:13;17.90;99.90
1702;DHT22;848;48.354;10.064;2022-10-26T12:36:47;17.80;99.90
1702;DHT22;848;48.354;10.064;2022-10-26T12:39:27;17.90;99.90
1702;DHT22;848;48.354;10.064;2022-10-26T12:41:56;18.00;99.90
1702;DHT22;848;48.354;10.064;2022-10-26T12:44:34;18.00;99.90
1702;DHT22;848;48.354;10.064;2022-10-26T12:47:03;18.00;99.90
1702;DHT22;848;48.354;10.064;2022-10-26T12:52:40;17.90;99.90
1702;DHT22;848;48.354;10.064;2022-10-26T12:58:30;18.00;99.90
1702;DHT22;848;48.354;10.064;2022-10-26T13:07:19;18.30;99.90
1702;DHT22;848;48.354;10.064;2022-10-26T13:09:55;18.50;99.90
1702;DHT22;848;48.354;10.064;2022-10-26T13:12:25;18.60;99.90
1702;DHT22;848;48.354;10.064;2022-10-26T13:15:04;18.80;99.90
1702;DHT22;848;48.354;10.064;2022-10-26T13:17:33;19.00;99.90
1702;DHT22;848;48.354;10.064;2022-10-26T13:20:03;19.10;99.90
1702;DHT22;848;48.354;10.064;2022-10-26T13:22:31;19.10;99.90
1702;DHT22;848;48.354;10.064;2022-10-26T13:25:00;19.00;99.90
1702;DHT22;848;48.354;10.064;2022-10-26T13:27:42;19.00;99.90
1702;DHT22;848;48.354;10.064;2022-10-26T13:30:19;18.90;99.90
1702;DHT22;848;48.354;10.064;2022-10-26T13:32:51;18.80;99.90
1702;DHT22;848;48.354;10.064;2022-10-26T13:35:22;18.70;99.90
1702;DHT22;848;48.354;10.064;2022-10-26T13:37:52;18.70;99.90
1702;DHT22;848;48.354;10.064;2022-10-26T13:40:21;18.70;99.90
1702;DHT22;848;48.354;10.064;2022-10-26T13:42:51;18.70;99.90
1702;DHT22;848;48.354;10.064;2022-10-26T13:45:20;18.70;99.90
1702;DHT22;848;48.354;10.064;2022-10-26T13:47:55;18.70;99.90
1702;DHT22;848;48.354;10.064;2022-10-26T13:50:27;18.80;99.90
1702;DHT22;848;48.354;10.064;2022-10-26T13:52:58;18.90;99.90
1702;DHT22;848;48.354;10.064;2022-10-26T13:55:30;19.00;99.90
1702;DHT22;848;48.354;10.064;2022-10-26T13:58:10;19.00;99.90
1702;DHT22;848;48.354;10.064;2022-10-26T14:01:01;19.00;99.90
1702;DHT22;848;48.354;10.064;2022-10-26T14:03:28;19.10;99.90
1702;DHT22;848;48.354;10.064;2022-10-26T14:05:56;19.00;99.90
1702;DHT22;848;48.354;10.064;2022-10-26T14:08:23;19.10;99.90
1702;DHT22;848;48.354;10.064;2022-10-26T14:10:56;19.10;99.90
1702;DHT22;848;48.354;10.064;2022-10-26T14:13:25;19.20;99.90
1702;DHT22;848;48.354;10.064;2022-10-26T14:15:53;19.20;99.90
1702;DHT22;848;48.354;10.064;2022-10-26T14:18:22;19.10;99.90
1702;DHT22;848;48.354;10.064;2022-10-26T14:20:57;19.10;99.90
1702;DHT22;848;48.354;10.064;2022-10-26T14:23:33;19.00;99.90
1702;DHT22;848;48.354;10.064;2022-10-26T14:26:00;18.90;99.90
1702;DHT22;848;48.354;10.064;2022-10-26T14:28:31;18.90;99.90
1702;DHT22;848;48.354;10.064;2022-10-26T14:31:11;18.90;99.90
1702;DHT22;848;48.354;10.064;2022-10-26T14:33:38;18.90;99.90
1702;DHT22;848;48.354;10.064;2022-10-26T14:36:06;18.90;99.90
1702;DHT22;848;48.354;10.064;2022-10-26T14:38:40;18.80;99.90
1702;DHT22;848;48.354;10.064;2022-10-26T14:41:08;18.70;99.90
1702;DHT22;848;48.354;10.064;2022-10-26T14:43:35;18.70;99.90
1702;DHT22;848;48.354;10.064;2022-10-26T14:46:02;18.60;99.90
1702;DHT22;848;48.354;10.064;2022-10-26T14:48:32;18.60;99.90
1702;DHT22;848;48.354;10.064;2022-10-26T14:51:09;18.60;99.90
1702;DHT22;848;48.354;10.064;2022-10-26T14:53:39;18.40;99.90
1702;DHT22;848;48.354;10.064;2022-10-26T14:56:19;18.30;99.90
1702;DHT22;848;48.354;10.064;2022-10-26T14:58:47;18.20;99.90
1702;DHT22;848;48.354;10.064;2022-10-26T15:01:26;18.10;99.90
1702;DHT22;848;48.354;10.064;2022-10-26T15:03:55;18.10;99.90
1702;DHT22;848;48.354;10.064;2022-10-26T15:06:41;18.00;99.90
1702;DHT22;848;48.354;10.064;2022-10-26T15:09:40;17.90;99.90
1702;DHT22;848;48.354;10.064;2022-10-26T15:12:21;17.80;99.90
1702;DHT22;848;48.354;10.064;2022-10-26T15:14:49;17.70;99.90
1702;DHT22;848;48.354;10.064;2022-10-26T15:17:21;17.60;99.90
1702;DHT22;848;48.354;10.064;2022-10-26T15:19:49;17.60;99.90
1702;DHT22;848;48.354;10.064;2022-10-26T15:22:23;17.50;99.90
1702;DHT22;848;48.354;10.064;2022-10-26T15:24:54;17.50;99.90
1702;DHT22;848;48.354;10.064;2022-10-26T15:27:22;17.50;99.90
1702;DHT22;848;48.354;10.064;2022-10-26T15:29:51;17.50;99.90
1702;DHT22;848;48.354;10.064;2022-10-26T15:32:27;17.50;99.90
1702;DHT22;848;48.354;10.064;2022-10-26T15:37:55;17.30;99.90
1702;DHT22;848;48.354;10.064;2022-10-26T15:40:24;17.10;99.90
1702;DHT22;848;48.354;10.064;2022-10-26T15:42:53;17.00;99.90
1702;DHT22;848;48.354;10.064;2022-10-26T15:45:23;16.90;99.90
1702;DHT22;848;48.354;10.064;2022-10-26T15:47:51;16.80;99.90
1702;DHT22;848;48.354;10.064;2022-10-26T15:50:20;16.70;99.90
1702;DHT22;848;48.354;10.064;2022-10-26T15:52:48;16.60;99.90
1702;DHT22;848;48.354;10.064;2022-10-26T15:55:15;16.50;99.90
1702;DHT22;848;48.354;10.064;2022-10-26T15:57:44;16.40;99.90
1702;DHT22;848;48.354;10.064;2022-10-26T16:00:14;16.30;99.90
1702;DHT22;848;48.354;10.064;2022-10-26T16:02:43;16.20;99.90
1702;DHT22;848;48.354;10.064;2022-10-26T16:05:13;16.10;99.90
1702;DHT22;848;48.354;10.064;2022-10-26T16:07:41;16.00;99.90
1702;DHT22;848;48.354;10.064;2022-10-26T16:10:13;15.90;99.90
1702;DHT22;848;48.354;10.064;2022-10-26T16:12:44;15.80;99.90
1702;DHT22;848;48.354;10.064;2022-10-26T16:15:16;15.80;99.90
1702;DHT22;848;48.354;10.064;2022-10-26T16:17:43;15.70;99.90
1702;DHT22;848;48.354;10.064;2022-10-26T16:20:13;15.60;99.90
1702;DHT22;848;48.354;10.064;2022-10-26T16:22:40;15.50;99.90
1702;DHT22;848;48.354;10.064;2022-10-26T16:25:14;15.40;99.90
1702;DHT22;848;48.354;10.064;2022-10-26T16:27:42;15.40;99.90
1702;DHT22;848;48.354;10.064;2022-10-26T16:30:11;15.20;99.90
1702;DHT22;848;48.354;10.064;2022-10-26T16:32:38;15.20;99.90
1702;DHT22;848;48.354;10.064;2022-10-26T16:35:06;15.00;99.90
1702;DHT22;848;48.354;10.064;2022-10-26T16:37:33;14.90;99.90
1702;DHT22;848;48.354;10.064;2022-10-26T16:40:00;14.80;99.90
1702;DHT22;848;48.354;10.064;2022-10-26T16:42:29;14.80;99.90
1702;DHT22;848;48.354;10.064;2022-10-26T16:44:55;14.70;99.90
1702;DHT22;848;48.354;10.064;2022-10-26T16:47:24;14.70;99.90